sensor_id;sensor_type;location;lat;lon;timestamp;temperature;humidity
7972;DHT22;4031;49.758;6.120;2023-12-29T00:00:41;8.40;99.90
7972;DHT22;4031;49.758;6.120;2023-12-29T00:03:07;8.40;99.90
7972;DHT22;4031;49.758;6.120;2023-12-29T00:05:32;8.40;99.90
7972;DHT22;4031;49.758;6.120;2023-12-29T00:07:58;8.40;99.90
7972;DHT22;4031;49.758;6.120;2023-12-29T00:10:24;8.40;99.90
7972;DHT22;4031;49.758;6.120;2023-12-29T00:12:49;8.40;99.90
7972;DHT22;4031;49.758;6.120;2023-12-29T00:15:18;8.40;99.90
7972;DHT22;4031;49.758;6.120;2023-12-29T00:17:45;8.40;99.90
7972;DHT22;4031;49.758;6.120;2023-12-29T00:20:12;8.40;99.90
7972;DHT22;4031;49.758;6.120;2023-12-29T00:22:38;8.30;99.90
7972;DHT22;4031;49.758;6.120;2023-12-29T00:25:04;8.40;99.90
7972;DHT22;4031;49.758;6.120;2023-12-29T00:27:30;8.30;99.90
7972;DHT22;4031;49.758;6.120;2023-12-29T00:29:56;8.40;99.90
7972;DHT22;4031;49.758;6.120;2023-12-29T00:32:22;8.30;99.90
7972;DHT22;4031;49.758;6.120;2023-12-29T00:34:48;8.30;99.90
7972;DHT22;4031;49.758;6.120;2023-12-29T00:37:13;8.40;99.90
7972;DHT22;4031;49.758;6.120;2023-12-29T00:39:39;8.40;99.90
7972;DHT22;4031;49.758;6.120;2023-12-29T00:42:06;8.40;99.90
7972;DHT22;4031;49.758;6.120;2023-12-29T00:44:32;8.40;99.90
7972;DHT22;4031;49.758;6.120;2023-12-29T00:46:59;8.40;99.90
7972;DHT22;4031;49.758;6.120;2023-12-29T00:49:25;8.40;99.90
7972;DHT22;4031;49.758;6.120;2023-12-29T00:51:51;8.40;99.90
7972;DHT22;4031;49.758;6.120;2023-12-29T00:54:17;8.40;99.90
7972;DHT22;4031;49.758;6.120;2023-12-29T00:56:48;8.40;99.90
7972;DHT22;4031;49.758;6.120;2023-12-29T00:59:15;8.30;99.90
7972;DHT22;4031;49.758;6.120;2023-12-29T01:01:40;8.30;99.90
7972;DHT22;4031;49.758;6.120;2023-12-29T01:04:06;8.30;99.90
7972;DHT22;4031;49.758;6.120;2023-12-29T01:06:32;8.30;99.90
7972;DHT22;4031;49.758;6.120;2023-12-29T01:08:58;8.30;99.90
7972;DHT22;4031;49.758;6.120;2023-12-29T01:11:24;8.30;99.90
7972;DHT22;4031;49.758;6.120;2023-12-29T01:13:49;8.20;99.90
7972;DHT22;4031;49.758;6.120;2023-12-29T01:16:15;8.30;99.90
7972;DHT22;4031;49.758;6.120;2023-12-29T01:18:41;8.30;99.90
7972;DHT22;4031;49.758;6.120;2023-12-29T01:21:06;8.30;99.90
7972;DHT22;4031;49.758;6.120;2023-12-29T01:23:32;8.30;99.90
7972;DHT22;4031;49.758;6.120;2023-12-29T01:25:58;8.30;99.90
7972;DHT22;4031;49.758;6.120;2023-12-29T01:28:24;8.30;99.90
7972;DHT22;4031;49.758;6.120;2023-12-29T01:30:51;8.30;99.90
7972;DHT22;4031;49.758;6.120;2023-12-29T01:33:16;8.30;99.90
7972;DHT22;4031;49.758;6.120;2023-12-29T01:35:42;8.20;99.90
7972;DHT22;4031;49.758;6.120;2023-12-29T01:38:08;8.20;99.90
7972;DHT22;4031;49.758;6.120;2023-12-29T01:40:45;8.20;99.90
7972;DHT22;4031;49.758;6.120;2023-12-29T01:43:11;8.20;99.90
7972;DHT22;4031;49.758;6.120;2023-12-29T01:45:37;8.20;99.90
7972;DHT22;4031;49.758;6.120;2023-12-29T01:48:03;8.20;99.90
7972;DHT22;4031;49.758;6.120;2023-12-29T01:50:30;8.20;99.90
7972;DHT22;4031;49.758;6.120;2023-12-29T01:52:56;8.10;99.90
7972;DHT22;4031;49.758;6.120;2023-12-29T01:55:24;8.10;99.90
7972;DHT22;4031;49.758;6.120;2023-12-29T01:57:51;7.90;99.90
7972;DHT22;4031;49.758;6.120;2023-12-29T02:00:17;7.90;99.90
7972;DHT22;4031;49.758;6.120;2023-12-29T02:02:45;7.90;99.90
7972;DHT22;4031;49.758;6.120;2023-12-29T02:05:14;7.80;99.90
7972;DHT22;4031;49.758;6.120;2023-12-29T02:07:41;7.80;99.90
7972;DHT22;4031;49.758;6.120;2023-12-29T02:10:08;7.90;99.90
7972;DHT22;4031;49.758;6.120;2023-12-29T02:12:35;7.90;99.90
7972;DHT22;4031;49.758;6.120;2023-12-29T02:15:05;7.90;99.90
7972;DHT22;4031;49.758;6.120;2023-12-29T02:17:45;8.00;99.90
7972;DHT22;4031;49.758;6.120;2023-12-29T02:20:13;8.00;99.90
7972;DHT22;4031;49.758;6.120;2023-12-29T02:22:39;8.00;99.90
7972;DHT22;4031;49.758;6.120;2023-12-29T02:25:06;8.00;99.90
7972;DHT22;4031;49.758;6.120;2023-12-29T02:27:55;8.00;99.90
7972;DHT22;4031;49.758;6.120;2023-12-29T02:30:37;8.00;99.90
7972;DHT22;4031;49.758;6.120;2023-12-29T02:33:05;8.00;99.90
7972;DHT22;4031;49.758;6.120;2023-12-29T02:35:41;7.90;99.90
7972;DHT22;4031;49.758;6.120;2023-12-29T02:38:08;7.90;99.90
7972;DHT22;4031;49.758;6.120;2023-12-29T02:40:35;7.80;99.90
7972;DHT22;4031;49.758;6.120;2023-12-29T02:43:01;7.70;99.90
7972;DHT22;4031;49.758;6.120;2023-12-29T02:45:27;7.70;99.90
7972;DHT22;4031;49.758;6.120;2023-12-29T02:47:53;7.80;99.90
7972;DHT22;4031;49.758;6.120;2023-12-29T02:50:19;7.70;99.90
7972;DHT22;4031;49.758;6.120;2023-12-29T02:52:44;7.60;99.90
7972;DHT22;4031;49.758;6.120;2023-12-29T02:55:10;7.70;99.90
7972;DHT22;4031;49.758;6.120;2023-12-29T02:57:36;7.70;99.90
7972;DHT22;4031;49.758;6.120;2023-12-29T03:00:03;7.80;99.90
7972;DHT22;4031;49.758;6.120;2023-12-29T03:02:30;7.80;99.90
7972;DHT22;4031;49.758;6.120;2023-12-29T03:04:56;7.80;99.90
7972;DHT22;4031;49.758;6.120;2023-12-29T03:07:22;7.90;99.90
7972;DHT22;4031;49.758;6.120;2023-12-29T03:09:48;7.90;99.90
7972;DHT22;4031;49.758;6.120;2023-12-29T03:12:14;7.90;99.90
7972;DHT22;4031;49.758;6.120;2023-12-29T03:14:39;7.90;99.90
7972;DHT22;4031;49.758;6.120;2023-12-29T03:17:05;7.90;99.90
7972;DHT22;4031;49.758;6.120;2023-12-29T03:19:31;8.00;99.90
7972;DHT22;4031;49.758;6.120;2023-12-29T03:21:56;7.90;99.90
7972;DHT22;4031;49.758;6.120;2023-12-29T03:24:22;8.00;99.90
7972;DHT22;4031;49.758;6.120;2023-12-29T03:26:48;8.00;99.90
7972;DHT22;4031;49.758;6.120;2023-12-29T03:29:14;8.00;99.90
7972;DHT22;4031;49.758;6.120;2023-12-29T03:31:40;8.00;99.90
7972;DHT22;4031;49.758;6.120;2023-12-29T03:34:06;8.00;99.90
7972;DHT22;4031;49.758;6.120;2023-12-29T03:36:32;8.00;99.90
7972;DHT22;4031;49.758;6.120;2023-12-29T03:38:58;8.00;99.90
7972;DHT22;4031;49.758;6.120;2023-12-29T03:41:24;8.00;99.90
7972;DHT22;4031;49.758;6.120;2023-12-29T03:43:49;8.10;99.90
7972;DHT22;4031;49.758;6.120;2023-12-29T03:48:43;8.10;99.90
7972;DHT22;4031;49.758;6.120;2023-12-29T03:51:08;8.10;99.90
7972;DHT22;4031;49.758;6.120;2023-12-29T03:53:37;8.10;99.90
7972;DHT22;4031;49.758;6.120;2023-12-29T03:56:12;8.10;99.90
7972;DHT22;4031;49.758;6.120;2023-12-29T03:58:39;8.10;99.90
7972;DHT22;4031;49.758;6.120;2023-12-29T04:01:12;8.10;99.90
7972;DHT22;4031;49.758;6.120;2023-12-29T04:03:39;8.10;99.90
7972;DHT22;4031;49.758;6.120;2023-12-29T04:06:06;8.10;99.90
7972;DHT22;4031;49.758;6.120;2023-12-29T04:08:33;8.20;99.90
7972;DHT22;4031;49.758;6.120;2023-12-29T04:10:59;8.20;99.90
7972;DHT22;4031;49.758;6.120;2023-12-29T04:13:24;8.20;99.90
7972;DHT22;4031;49.758;6.120;2023-12-29T04:15:50;8.20;99.90
7972;DHT22;4031;49.758;6.120;2023-12-29T04:18:16;8.20;99.90
7972;DHT22;4031;49.758;6.120;2023-12-29T04:20:42;8.20;99.90
7972;DHT22;4031;49.758;6.120;2023-12-29T04:23:08;8.30;99.90
7972;DHT22;4031;49.758;6.120;2023-12-29T04:25:34;8.30;99.90
7972;DHT22;4031;49.758;6.120;2023-12-29T04:28:00;8.30;99.90
7972;DHT22;4031;49.758;6.120;2023-12-29T04:30:26;8.30;99.90
7972;DHT22;4031;49.758;6.120;2023-12-29T04:32:52;8.30;99.90
7972;DHT22;4031;49.758;6.120;2023-12-29T04:35:17;8.30;99.90
7972;DHT22;4031;49.758;6.120;2023-12-29T04:37:46;8.30;99.90
7972;DHT22;4031;49.758;6.120;2023-12-29T04:40:12;8.30;99.90
7972;DHT22;4031;49.758;6.120;2023-12-29T04:42:38;8.30;99.90
7972;DHT22;4031;49.758;6.120;2023-12-29T04:45:04;8.40;99.90
7972;DHT22;4031;49.758;6.120;2023-12-29T04:47:30;8.40;99.90
7972;DHT22;4031;49.758;6.120;2023-12-29T04:49:57;8.30;99.90
7972;DHT22;4031;49.758;6.120;2023-12-29T04:52:23;8.40;99.90
7972;DHT22;4031;49.758;6.120;2023-12-29T04:54:49;8.40;99.90
7972;DHT22;4031;49.758;6.120;2023-12-29T04:57:15;8.40;99.90
7972;DHT22;4031;49.758;6.120;2023-12-29T04:59:41;8.50;99.90
7972;DHT22;4031;49.758;6.120;2023-12-29T05:02:06;8.50;99.90
7972;DHT22;4031;49.758;6.120;2023-12-29T05:04:32;8.50;99.90
7972;DHT22;4031;49.758;6.120;2023-12-29T05:06:58;8.50;99.90
7972;DHT22;4031;49.758;6.120;2023-12-29T05:09:24;8.60;99.90
7972;DHT22;4031;49.758;6.120;2023-12-29T05:11:49;8.50;99.90
7972;DHT22;4031;49.758;6.120;2023-12-29T05:14:15;8.60;99.90
7972;DHT22;4031;49.758;6.120;2023-12-29T05:16:42;8.60;99.90
7972;DHT22;4031;49.758;6.120;2023-12-29T05:19:08;8.60;99.90
7972;DHT22;4031;49.758;6.120;2023-12-29T05:21:33;8.70;99.90
7972;DHT22;4031;49.758;6.120;2023-12-29T05:23:59;8.70;99.90
7972;DHT22;4031;49.758;6.120;2023-12-29T05:26:25;8.70;99.90
7972;DHT22;4031;49.758;6.120;2023-12-29T05:28:51;8.70;99.90
7972;DHT22;4031;49.758;6.120;2023-12-29T05:31:17;8.70;99.90
7972;DHT22;4031;49.758;6.120;2023-12-29T05:33:44;8.70;99.90
7972;DHT22;4031;49.758;6.120;2023-12-29T05:36:10;8.70;99.90
7972;DHT22;4031;49.758;6.120;2023-12-29T05:38:37;8.70;99.90
7972;DHT22;4031;49.758;6.120;2023-12-29T05:41:03;8.60;99.90
7972;DHT22;4031;49.758;6.120;2023-12-29T05:43:31;8.60;99.90
7972;DHT22;4031;49.758;6.120;2023-12-29T05:45:58;8.70;99.90
7972;DHT22;4031;49.758;6.120;2023-12-29T05:48:24;8.60;99.90
7972;DHT22;4031;49.758;6.120;2023-12-29T05:50:51;8.60;99.90
7972;DHT22;4031;49.758;6.120;2023-12-29T05:53:17;8.70;99.90
7972;DHT22;4031;49.758;6.120;2023-12-29T05:55:48;8.60;99.90
7972;DHT22;4031;49.758;6.120;2023-12-29T05:58:14;8.70;99.90
7972;DHT22;4031;49.758;6.120;2023-12-29T06:00:39;8.60;99.90
7972;DHT22;4031;49.758;6.120;2023-12-29T06:03:05;8.70;99.90
7972;DHT22;4031;49.758;6.120;2023-12-29T06:05:32;8.60;99.90
7972;DHT22;4031;49.758;6.120;2023-12-29T06:07:58;8.60;99.90
7972;DHT22;4031;49.758;6.120;2023-12-29T06:10:24;8.60;99.90
7972;DHT22;4031;49.758;6.120;2023-12-29T06:12:50;8.60;99.90
7972;DHT22;4031;49.758;6.120;2023-12-29T06:15:15;8.60;99.90
7972;DHT22;4031;49.758;6.120;2023-12-29T06:17:42;8.60;99.90
7972;DHT22;4031;49.758;6.120;2023-12-29T06:20:09;8.60;99.90
7972;DHT22;4031;49.758;6.120;2023-12-29T06:22:39;8.70;99.90
7972;DHT22;4031;49.758;6.120;2023-12-29T06:25:10;8.70;99.90
7972;DHT22;4031;49.758;6.120;2023-12-29T06:27:36;8.60;99.90
7972;DHT22;4031;49.758;6.120;2023-12-29T06:30:07;8.60;99.90
7972;DHT22;4031;49.758;6.120;2023-12-29T06:32:34;8.60;99.90
7972;DHT22;4031;49.758;6.120;2023-12-29T06:35:00;8.60;99.90
7972;DHT22;4031;49.758;6.120;2023-12-29T06:37:26;8.60;99.90
7972;DHT22;4031;49.758;6.120;2023-12-29T06:39:51;8.60;99.90
7972;DHT22;4031;49.758;6.120;2023-12-29T06:42:17;8.50;99.90
7972;DHT22;4031;49.758;6.120;2023-12-29T06:44:43;8.50;99.90
7972;DHT22;4031;49.758;6.120;2023-12-29T06:47:08;8.50;99.90
7972;DHT22;4031;49.758;6.120;2023-12-29T06:49:35;8.50;99.90
7972;DHT22;4031;49.758;6.120;2023-12-29T06:52:01;8.60;99.90
7972;DHT22;4031;49.758;6.120;2023-12-29T06:54:27;8.60;99.90
7972;DHT22;4031;49.758;6.120;2023-12-29T06:56:53;8.60;99.90
7972;DHT22;4031;49.758;6.120;2023-12-29T06:59:19;8.60;99.90
7972;DHT22;4031;49.758;6.120;2023-12-29T07:01:45;8.50;99.90
7972;DHT22;4031;49.758;6.120;2023-12-29T07:04:12;8.60;99.90
7972;DHT22;4031;49.758;6.120;2023-12-29T07:06:39;8.60;99.90
7972;DHT22;4031;49.758;6.120;2023-12-29T07:09:05;8.60;99.90
7972;DHT22;4031;49.758;6.120;2023-12-29T07:11:31;8.60;99.90
7972;DHT22;4031;49.758;6.120;2023-12-29T07:13:56;8.60;99.90
7972;DHT22;4031;49.758;6.120;2023-12-29T07:16:22;8.60;99.90
7972;DHT22;4031;49.758;6.120;2023-12-29T07:18:48;8.60;99.90
7972;DHT22;4031;49.758;6.120;2023-12-29T07:21:14;8.50;99.90
7972;DHT22;4031;49.758;6.120;2023-12-29T07:23:41;8.50;99.90
7972;DHT22;4031;49.758;6.120;2023-12-29T07:26:07;8.50;99.90
7972;DHT22;4031;49.758;6.120;2023-12-29T07:28:33;8.50;99.90
7972;DHT22;4031;49.758;6.120;2023-12-29T07:31:00;8.50;99.90
7972;DHT22;4031;49.758;6.120;2023-12-29T07:33:26;8.50;99.90
7972;DHT22;4031;49.758;6.120;2023-12-29T07:35:52;8.70;99.90
7972;DHT22;4031;49.758;6.120;2023-12-29T07:38:18;8.60;99.90
7972;DHT22;4031;49.758;6.120;2023-12-29T07:40:44;8.60;99.90
7972;DHT22;4031;49.758;6.120;2023-12-29T07:43:10;8.60;99.90
7972;DHT22;4031;49.758;6.120;2023-12-29T07:45:36;8.60;99.90
7972;DHT22;4031;49.758;6.120;2023-12-29T07:48:03;8.60;99.90
7972;DHT22;4031;49.758;6.120;2023-12-29T07:50:29;8.50;99.90
7972;DHT22;4031;49.758;6.120;2023-12-29T07:52:55;8.60;99.90
7972;DHT22;4031;49.758;6.120;2023-12-29T07:55:21;8.50;99.90
7972;DHT22;4031;49.758;6.120;2023-12-29T07:57:47;8.50;99.90
7972;DHT22;4031;49.758;6.120;2023-12-29T08:00:16;8.50;99.90
7972;DHT22;4031;49.758;6.120;2023-12-29T08:02:42;8.50;99.90
7972;DHT22;4031;49.758;6.120;2023-12-29T08:05:08;8.40;99.90
7972;DHT22;4031;49.758;6.120;2023-12-29T08:07:35;8.40;99.90
7972;DHT22;4031;49.758;6.120;2023-12-29T08:10:06;8.30;99.90
7972;DHT22;4031;49.758;6.120;2023-12-29T08:12:33;8.30;99.90
7972;DHT22;4031;49.758;6.120;2023-12-29T08:14:59;8.30;99.90
7972;DHT22;4031;49.758;6.120;2023-12-29T08:17:26;8.30;99.90
7972;DHT22;4031;49.758;6.120;2023-12-29T08:19:52;8.30;99.90
7972;DHT22;4031;49.758;6.120;2023-12-29T08:22:19;8.30;99.90
7972;DHT22;4031;49.758;6.120;2023-12-29T08:24:45;8.30;99.90
7972;DHT22;4031;49.758;6.120;2023-12-29T08:27:14;8.20;99.90
7972;DHT22;4031;49.758;6.120;2023-12-29T08:29:40;8.20;99.90
7972;DHT22;4031;49.758;6.120;2023-12-29T08:32:07;8.30;99.90
7972;DHT22;4031;49.758;6.120;2023-12-29T08:34:33;8.30;99.90
7972;DHT22;4031;49.758;6.120;2023-12-29T08:37:03;8.30;99.90
7972;DHT22;4031;49.758;6.120;2023-12-29T08:39:29;8.30;99.90
7972;DHT22;4031;49.758;6.120;2023-12-29T08:41:55;8.30;99.90
7972;DHT22;4031;49.758;6.120;2023-12-29T08:44:21;8.20;99.90
7972;DHT22;4031;49.758;6.120;2023-12-29T08:46:46;8.30;99.90
7972;DHT22;4031;49.758;6.120;2023-12-29T08:49:12;8.20;99.90
7972;DHT22;4031;49.758;6.120;2023-12-29T08:51:38;8.30;99.90
7972;DHT22;4031;49.758;6.120;2023-12-29T08:54:04;8.20;99.90
7972;DHT22;4031;49.758;6.120;2023-12-29T08:56:30;8.20;99.90
7972;DHT22;4031;49.758;6.120;2023-12-29T08:58:56;8.30;99.90
7972;DHT22;4031;49.758;6.120;2023-12-29T09:01:21;8.20;99.90
7972;DHT22;4031;49.758;6.120;2023-12-29T09:03:47;8.20;99.90
7972;DHT22;4031;49.758;6.120;2023-12-29T09:06:13;8.20;99.90
7972;DHT22;4031;49.758;6.120;2023-12-29T09:08:39;8.10;99.90
7972;DHT22;4031;49.758;6.120;2023-12-29T09:11:05;8.20;99.90
7972;DHT22;4031;49.758;6.120;2023-12-29T09:13:31;8.10;99.90
7972;DHT22;4031;49.758;6.120;2023-12-29T09:15:59;8.20;99.90
7972;DHT22;4031;49.758;6.120;2023-12-29T09:18:25;8.20;99.90
7972;DHT22;4031;49.758;6.120;2023-12-29T09:20:51;8.20;99.90
7972;DHT22;4031;49.758;6.120;2023-12-29T09:23:17;8.20;99.90
7972;DHT22;4031;49.758;6.120;2023-12-29T09:25:43;8.20;99.90
7972;DHT22;4031;49.758;6.120;2023-12-29T09:28:09;8.20;99.90
7972;DHT22;4031;49.758;6.120;2023-12-29T09:30:35;8.20;99.90
7972;DHT22;4031;49.758;6.120;2023-12-29T09:33:00;8.20;99.90
7972;DHT22;4031;49.758;6.120;2023-12-29T09:35:26;8.20;99.90
7972;DHT22;4031;49.758;6.120;2023-12-29T09:37:52;8.30;99.90
7972;DHT22;4031;49.758;6.120;2023-12-29T09:40:18;8.30;99.90
7972;DHT22;4031;49.758;6.120;2023-12-29T09:42:44;8.30;99.90
7972;DHT22;4031;49.758;6.120;2023-12-29T09:45:13;8.40;99.90
7972;DHT22;4031;49.758;6.120;2023-12-29T09:47:41;8.40;99.90
7972;DHT22;4031;49.758;6.120;2023-12-29T09:50:12;8.50;99.90
7972;DHT22;4031;49.758;6.120;2023-12-29T09:52:41;8.50;99.90
7972;DHT22;4031;49.758;6.120;2023-12-29T09:55:09;8.60;99.90
7972;DHT22;4031;49.758;6.120;2023-12-29T09:57:40;8.70;99.90
7972;DHT22;4031;49.758;6.120;2023-12-29T10:00:10;8.80;99.90
7972;DHT22;4031;49.758;6.120;2023-12-29T10:02:37;8.80;99.90
7972;DHT22;4031;49.758;6.120;2023-12-29T10:05:04;8.80;99.90
7972;DHT22;4031;49.758;6.120;2023-12-29T10:07:42;8.80;99.90
7972;DHT22;4031;49.758;6.120;2023-12-29T10:10:14;8.80;99.90
7972;DHT22;4031;49.758;6.120;2023-12-29T10:12:47;8.90;99.90
7972;DHT22;4031;49.758;6.120;2023-12-29T10:15:21;8.80;99.90
7972;DHT22;4031;49.758;6.120;2023-12-29T10:18:30;8.90;99.90
7972;DHT22;4031;49.758;6.120;2023-12-29T10:21:02;8.90;99.90
7972;DHT22;4031;49.758;6.120;2023-12-29T10:23:41;8.90;99.90
7972;DHT22;4031;49.758;6.120;2023-12-29T10:26:11;8.80;99.90
7972;DHT22;4031;49.758;6.120;2023-12-29T10:28:37;8.80;99.90
7972;DHT22;4031;49.758;6.120;2023-12-29T10:31:04;8.80;99.90
7972;DHT22;4031;49.758;6.120;2023-12-29T10:33:30;8.70;99.90
7972;DHT22;4031;49.758;6.120;2023-12-29T10:36:02;8.70;99.90
7972;DHT22;4031;49.758;6.120;2023-12-29T10:38:29;8.80;99.90
7972;DHT22;4031;49.758;6.120;2023-12-29T10:41:14;8.80;99.90
7972;DHT22;4031;49.758;6.120;2023-12-29T10:43:41;8.80;99.90
7972;DHT22;4031;49.758;6.120;2023-12-29T10:46:09;8.80;99.90
7972;DHT22;4031;49.758;6.120;2023-12-29T10:48:36;8.90;99.90
7972;DHT22;4031;49.758;6.120;2023-12-29T10:51:04;8.90;99.90
7972;DHT22;4031;49.758;6.120;2023-12-29T10:53:34;9.00;99.90
7972;DHT22;4031;49.758;6.120;2023-12-29T10:56:00;9.00;99.90
7972;DHT22;4031;49.758;6.120;2023-12-29T10:58:27;9.10;99.90
7972;DHT22;4031;49.758;6.120;2023-12-29T11:00:55;9.30;99.90
7972;DHT22;4031;49.758;6.120;2023-12-29T11:03:21;9.40;99.90
7972;DHT22;4031;49.758;6.120;2023-12-29T11:05:48;9.50;99.90
7972;DHT22;4031;49.758;6.120;2023-12-29T11:08:21;9.50;99.90
7972;DHT22;4031;49.758;6.120;2023-12-29T11:10:50;9.50;99.90
7972;DHT22;4031;49.758;6.120;2023-12-29T11:13:16;9.50;99.90
7972;DHT22;4031;49.758;6.120;2023-12-29T11:15:44;9.40;99.90
7972;DHT22;4031;49.758;6.120;2023-12-29T11:18:15;9.30;99.90
7972;DHT22;4031;49.758;6.120;2023-12-29T11:20:43;9.30;99.90
7972;DHT22;4031;49.758;6.120;2023-12-29T11:23:10;9.20;99.90
7972;DHT22;4031;49.758;6.120;2023-12-29T11:25:39;9.20;99.90
7972;DHT22;4031;49.758;6.120;2023-12-29T11:28:10;9.20;99.90
7972;DHT22;4031;49.758;6.120;2023-12-29T11:30:39;9.10;99.90
7972;DHT22;4031;49.758;6.120;2023-12-29T11:33:18;9.00;99.90
7972;DHT22;4031;49.758;6.120;2023-12-29T11:35:54;8.90;99.90
7972;DHT22;4031;49.758;6.120;2023-12-29T11:41:13;8.80;99.90
7972;DHT22;4031;49.758;6.120;2023-12-29T11:43:44;8.80;99.90
7972;DHT22;4031;49.758;6.120;2023-12-29T11:46:37;8.70;99.90
7972;DHT22;4031;49.758;6.120;2023-12-29T11:49:09;8.80;99.90
7972;DHT22;4031;49.758;6.120;2023-12-29T11:51:39;8.80;99.90
7972;DHT22;4031;49.758;6.120;2023-12-29T11:54:06;8.80;99.90
7972;DHT22;4031;49.758;6.120;2023-12-29T11:56:39;8.90;99.90
7972;DHT22;4031;49.758;6.120;2023-12-29T11:59:20;8.90;99.90
7972;DHT22;4031;49.758;6.120;2023-12-29T12:01:53;8.90;99.90
7972;DHT22;4031;49.758;6.120;2023-12-29T12:04:39;8.90;99.90
7972;DHT22;4031;49.758;6.120;2023-12-29T12:07:16;8.90;99.90
7972;DHT22;4031;49.758;6.120;2023-12-29T12:09:43;8.90;99.90
7972;DHT22;4031;49.758;6.120;2023-12-29T12:12:10;9.00;99.90
7972;DHT22;4031;49.758;6.120;2023-12-29T12:14:52;9.10;99.90
7972;DHT22;4031;49.758;6.120;2023-12-29T12:20:02;9.40;99.90
7972;DHT22;4031;49.758;6.120;2023-12-29T12:22:31;9.50;99.90
7972;DHT22;4031;49.758;6.120;2023-12-29T12:24:58;9.50;99.90
7972;DHT22;4031;49.758;6.120;2023-12-29T12:27:26;9.50;99.90
7972;DHT22;4031;49.758;6.120;2023-12-29T12:29:56;9.60;99.90
7972;DHT22;4031;49.758;6.120;2023-12-29T12:32:26;9.50;99.90
7972;DHT22;4031;49.758;6.120;2023-12-29T12:34:52;9.50;99.90
7972;DHT22;4031;49.758;6.120;2023-12-29T12:37:19;9.50;99.90
7972;DHT22;4031;49.758;6.120;2023-12-29T12:39:46;9.40;99.90
7972;DHT22;4031;49.758;6.120;2023-12-29T12:42:12;9.30;99.90
7972;DHT22;4031;49.758;6.120;2023-12-29T12:44:56;9.30;99.90
7972;DHT22;4031;49.758;6.120;2023-12-29T12:47:49;9.30;99.90
7972;DHT22;4031;49.758;6.120;2023-12-29T12:50:16;9.20;99.90
7972;DHT22;4031;49.758;6.120;2023-12-29T12:52:42;9.20;99.90
7972;DHT22;4031;49.758;6.120;2023-12-29T12:55:08;9.10;99.90
7972;DHT22;4031;49.758;6.120;2023-12-29T12:57:36;9.10;99.90
7972;DHT22;4031;49.758;6.120;2023-12-29T13:00:03;9.00;99.90
7972;DHT22;4031;49.758;6.120;2023-12-29T13:02:32;9.00;99.90
7972;DHT22;4031;49.758;6.120;2023-12-29T13:04:58;9.00;99.90
7972;DHT22;4031;49.758;6.120;2023-12-29T13:07:24;9.00;99.90
7972;DHT22;4031;49.758;6.120;2023-12-29T13:09:51;9.00;99.90
7972;DHT22;4031;49.758;6.120;2023-12-29T13:12:18;9.10;99.90
7972;DHT22;4031;49.758;6.120;2023-12-29T13:14:44;9.10;99.90
7972;DHT22;4031;49.758;6.120;2023-12-29T13:17:14;9.10;99.90
7972;DHT22;4031;49.758;6.120;2023-12-29T13:19:42;9.10;99.90
7972;DHT22;4031;49.758;6.120;2023-12-29T13:22:10;9.10;99.90
7972;DHT22;4031;49.758;6.120;2023-12-29T13:24:46;9.20;99.90
7972;DHT22;4031;49.758;6.120;2023-12-29T13:27:12;9.10;99.90
7972;DHT22;4031;49.758;6.120;2023-12-29T13:29:39;9.00;99.90
7972;DHT22;4031;49.758;6.120;2023-12-29T13:32:22;8.90;99.90
7972;DHT22;4031;49.758;6.120;2023-12-29T13:40:54;8.80;99.90
7972;DHT22;4031;49.758;6.120;2023-12-29T13:43:26;8.80;99.90
7972;DHT22;4031;49.758;6.120;2023-12-29T13:45:54;8.70;99.90
7972;DHT22;4031;49.758;6.120;2023-12-29T13:48:20;8.70;99.90
7972;DHT22;4031;49.758;6.120;2023-12-29T13:50:48;8.70;99.90
7972;DHT22;4031;49.758;6.120;2023-12-29T13:53:21;8.60;99.90
7972;DHT22;4031;49.758;6.120;2023-12-29T13:55:48;8.60;99.90
7972;DHT22;4031;49.758;6.120;2023-12-29T13:58:14;8.60;99.90
7972;DHT22;4031;49.758;6.120;2023-12-29T14:00:43;8.60;99.90
7972;DHT22;4031;49.758;6.120;2023-12-29T14:03:23;8.60;99.90
7972;DHT22;4031;49.758;6.120;2023-12-29T14:05:56;8.70;99.90
7972;DHT22;4031;49.758;6.120;2023-12-29T14:08:26;8.70;99.90
7972;DHT22;4031;49.758;6.120;2023-12-29T14:11:10;8.70;99.90
7972;DHT22;4031;49.758;6.120;2023-12-29T14:13:44;8.60;99.90
7972;DHT22;4031;49.758;6.120;2023-12-29T14:16:11;8.60;99.90
7972;DHT22;4031;49.758;6.120;2023-12-29T14:21:36;8.50;99.90
7972;DHT22;4031;49.758;6.120;2023-12-29T14:24:13;8.50;99.90
7972;DHT22;4031;49.758;6.120;2023-12-29T14:29:12;8.50;99.90
7972;DHT22;4031;49.758;6.120;2023-12-29T14:31:42;8.50;99.90
7972;DHT22;4031;49.758;6.120;2023-12-29T14:34:09;8.40;99.90
7972;DHT22;4031;49.758;6.120;2023-12-29T14:36:37;8.40;99.90
7972;DHT22;4031;49.758;6.120;2023-12-29T14:39:03;8.40;99.90
7972;DHT22;4031;49.758;6.120;2023-12-29T14:41:30;8.40;99.90
7972;DHT22;4031;49.758;6.120;2023-12-29T14:43:56;8.30;99.90
7972;DHT22;4031;49.758;6.120;2023-12-29T14:46:22;8.30;99.90
7972;DHT22;4031;49.758;6.120;2023-12-29T14:48:48;8.30;99.90
7972;DHT22;4031;49.758;6.120;2023-12-29T14:51:15;8.30;99.90
7972;DHT22;4031;49.758;6.120;2023-12-29T14:53:45;8.30;99.90
7972;DHT22;4031;49.758;6.120;2023-12-29T14:56:12;8.30;99.90
7972;DHT22;4031;49.758;6.120;2023-12-29T14:58:39;8.30;99.90
7972;DHT22;4031;49.758;6.120;2023-12-29T15:01:06;8.30;99.90
7972;DHT22;4031;49.758;6.120;2023-12-29T15:03:33;8.20;99.90
7972;DHT22;4031;49.758;6.120;2023-12-29T15:05:59;8.20;99.90
7972;DHT22;4031;49.758;6.120;2023-12-29T15:08:25;8.30;99.90
7972;DHT22;4031;49.758;6.120;2023-12-29T15:10:53;8.30;99.90
7972;DHT22;4031;49.758;6.120;2023-12-29T15:13:19;8.20;99.90
7972;DHT22;4031;49.758;6.120;2023-12-29T15:15:45;8.20;99.90
7972;DHT22;4031;49.758;6.120;2023-12-29T15:18:11;8.20;99.90
7972;DHT22;4031;49.758;6.120;2023-12-29T15:20:37;8.20;99.90
7972;DHT22;4031;49.758;6.120;2023-12-29T15:23:03;8.20;99.90
7972;DHT22;4031;49.758;6.120;2023-12-29T15:25:29;8.20;99.90
7972;DHT22;4031;49.758;6.120;2023-12-29T15:27:54;8.20;99.90
7972;DHT22;4031;49.758;6.120;2023-12-29T15:30:20;8.20;99.90
7972;DHT22;4031;49.758;6.120;2023-12-29T15:32:46;8.20;99.90
7972;DHT22;4031;49.758;6.120;2023-12-29T15:35:12;8.20;99.90
7972;DHT22;4031;49.758;6.120;2023-12-29T15:37:38;8.20;99.90
7972;DHT22;4031;49.758;6.120;2023-12-29T15:40:04;8.20;99.90
7972;DHT22;4031;49.758;6.120;2023-12-29T15:42:30;8.20;99.90
7972;DHT22;4031;49.758;6.120;2023-12-29T15:44:56;8.10;99.90
7972;DHT22;4031;49.758;6.120;2023-12-29T15:47:22;8.10;99.90
7972;DHT22;4031;49.758;6.120;2023-12-29T15:49:47;8.10;99.90
7972;DHT22;4031;49.758;6.120;2023-12-29T15:52:13;8.10;99.90
7972;DHT22;4031;49.758;6.120;2023-12-29T15:54:39;8.10;99.90
7972;DHT22;4031;49.758;6.120;2023-12-29T15:57:05;8.10;99.90
7972;DHT22;4031;49.758;6.120;2023-12-29T15:59:34;8.10;99.90
7972;DHT22;4031;49.758;6.120;2023-12-29T16:02:00;8.10;99.90
7972;DHT22;4031;49.758;6.120;2023-12-29T16:04:26;8.10;99.90
7972;DHT22;4031;49.758;6.120;2023-12-29T16:06:57;8.10;99.90
7972;DHT22;4031;49.758;6.120;2023-12-29T16:09:23;8.20;99.90
7972;DHT22;4031;49.758;6.120;2023-12-29T16:11:48;8.20;99.90
7972;DHT22;4031;49.758;6.120;2023-12-29T16:14:21;8.20;99.90
7972;DHT22;4031;49.758;6.120;2023-12-29T16:16:48;8.20;99.90
7972;DHT22;4031;49.758;6.120;2023-12-29T16:19:14;8.20;99.90
7972;DHT22;4031;49.758;6.120;2023-12-29T16:21:40;8.20;99.90
7972;DHT22;4031;49.758;6.120;2023-12-29T16:24:09;8.20;99.90
7972;DHT22;4031;49.758;6.120;2023-12-29T16:26:35;8.20;99.90
7972;DHT22;4031;49.758;6.120;2023-12-29T16:29:03;8.20;99.90
7972;DHT22;4031;49.758;6.120;2023-12-29T16:31:29;8.20;99.90
7972;DHT22;4031;49.758;6.120;2023-12-29T16:33:55;8.20;99.90
7972;DHT22;4031;49.758;6.120;2023-12-29T16:36:21;8.20;99.90
7972;DHT22;4031;49.758;6.120;2023-12-29T16:38:50;8.20;99.90